sensor_id;sensor_type;location;lat;lon;timestamp;pressure;altitude;pressure_sealevel;temperature;humidity
82249;BME280;71851;49.092;18.918;2023-12-20T00:01:58;97165.75;;;-2.04;85.19
82249;BME280;71851;49.092;18.918;2023-12-20T00:04:58;97155.59;;;-2.05;84.76
82249;BME280;71851;49.092;18.918;2023-12-20T00:07:59;97150.66;;;-2.08;85.33
82249;BME280;71851;49.092;18.918;2023-12-20T00:10:59;97143.75;;;-2.08;85.13
82249;BME280;71851;49.092;18.918;2023-12-20T00:13:59;97140.59;;;-2.11;84.88
82249;BME280;71851;49.092;18.918;2023-12-20T00:17:00;97139.75;;;-2.12;84.11
82249;BME280;71851;49.092;18.918;2023-12-20T00:20:00;97143.59;;;-2.17;85.21
82249;BME280;71851;49.092;18.918;2023-12-20T00:23:00;97147.69;;;-2.15;84.58
82249;BME280;71851;49.092;18.918;2023-12-20T00:26:01;97133.31;;;-2.17;84.95
82249;BME280;71851;49.092;18.918;2023-12-20T00:29:01;97129.00;;;-2.29;84.51
82249;BME280;71851;49.092;18.918;2023-12-20T00:32:02;97131.19;;;-2.36;85.14
82249;BME280;71851;49.092;18.918;2023-12-20T00:35:03;97124.06;;;-2.32;85.55
82249;BME280;71851;49.092;18.918;2023-12-20T00:38:07;97109.72;;;-2.35;85.55
82249;BME280;71851;49.092;18.918;2023-12-20T00:41:08;97113.91;;;-2.46;85.42
82249;BME280;71851;49.092;18.918;2023-12-20T00:44:09;97110.56;;;-2.47;86.42
82249;BME280;71851;49.092;18.918;2023-12-20T00:47:09;97099.84;;;-2.41;86.61
82249;BME280;71851;49.092;18.918;2023-12-20T00:50:10;97104.16;;;-2.29;85.96
82249;BME280;71851;49.092;18.918;2023-12-20T00:53:10;97108.53;;;-2.18;84.76
82249;BME280;71851;49.092;18.918;2023-12-20T00:56:11;97103.19;;;-2.15;84.88
82249;BME280;71851;49.092;18.918;2023-12-20T00:59:11;97098.03;;;-2.15;84.57
82249;BME280;71851;49.092;18.918;2023-12-20T01:02:11;97097.72;;;-2.11;84.14
82249;BME280;71851;49.092;18.918;2023-12-20T01:05:12;97099.59;;;-2.13;84.42
82249;BME280;71851;49.092;18.918;2023-12-20T01:08:12;97091.03;;;-2.13;83.42
82249;BME280;71851;49.092;18.918;2023-12-20T01:11:13;97099.88;;;-2.05;82.85
82249;BME280;71851;49.092;18.918;2023-12-20T01:14:13;97086.06;;;-2.04;82.81
82249;BME280;71851;49.092;18.918;2023-12-20T01:17:13;97069.94;;;-2.06;82.21
82249;BME280;71851;49.092;18.918;2023-12-20T01:20:14;97072.72;;;-2.09;82.78
82249;BME280;71851;49.092;18.918;2023-12-20T01:23:15;97076.22;;;-2.10;82.85
82249;BME280;71851;49.092;18.918;2023-12-20T01:26:16;97073.25;;;-2.16;81.79
82249;BME280;71851;49.092;18.918;2023-12-20T01:29:16;97064.81;;;-2.18;82.13
82249;BME280;71851;49.092;18.918;2023-12-20T01:32:17;97056.22;;;-2.17;82.20
82249;BME280;71851;49.092;18.918;2023-12-20T01:35:17;97051.66;;;-2.14;81.61
82249;BME280;71851;49.092;18.918;2023-12-20T01:38:18;97053.31;;;-2.13;81.86
82249;BME280;71851;49.092;18.918;2023-12-20T01:41:19;97045.38;;;-2.10;82.65
82249;BME280;71851;49.092;18.918;2023-12-20T01:44:20;97039.84;;;-2.16;82.00
82249;BME280;71851;49.092;18.918;2023-12-20T01:47:20;97033.28;;;-2.20;82.27
82249;BME280;71851;49.092;18.918;2023-12-20T01:50:22;97018.28;;;-2.26;82.25
82249;BME280;71851;49.092;18.918;2023-12-20T01:53:24;97014.09;;;-2.27;82.36
82249;BME280;71851;49.092;18.918;2023-12-20T01:56:26;97010.59;;;-2.26;83.29
82249;BME280;71851;49.092;18.918;2023-12-20T01:59:29;97008.84;;;-2.26;82.27
82249;BME280;71851;49.092;18.918;2023-12-20T02:02:30;96999.59;;;-2.28;82.28
82249;BME280;71851;49.092;18.918;2023-12-20T02:05:31;96980.91;;;-2.30;81.69
82249;BME280;71851;49.092;18.918;2023-12-20T02:08:34;96982.03;;;-2.34;82.04
82249;BME280;71851;49.092;18.918;2023-12-20T02:11:34;96970.16;;;-2.35;82.28
82249;BME280;71851;49.092;18.918;2023-12-20T02:14:37;96965.13;;;-2.37;82.41
82249;BME280;71851;49.092;18.918;2023-12-20T02:17:38;96966.47;;;-2.44;82.24
82249;BME280;71851;49.092;18.918;2023-12-20T02:20:39;96976.44;;;-2.39;83.47
82249;BME280;71851;49.092;18.918;2023-12-20T02:23:40;96957.75;;;-2.41;82.39
82249;BME280;71851;49.092;18.918;2023-12-20T02:26:40;96949.53;;;-2.46;82.56
82249;BME280;71851;49.092;18.918;2023-12-20T02:29:41;96951.38;;;-2.48;82.87
82249;BME280;71851;49.092;18.918;2023-12-20T02:32:41;96942.25;;;-2.52;82.26
82249;BME280;71851;49.092;18.918;2023-12-20T02:35:42;96945.88;;;-2.55;82.20
82249;BME280;71851;49.092;18.918;2023-12-20T02:38:42;96937.78;;;-2.62;82.33
82249;BME280;71851;49.092;18.918;2023-12-20T02:41:43;96941.50;;;-2.66;82.77
82249;BME280;71851;49.092;18.918;2023-12-20T02:44:43;96930.63;;;-2.69;83.23
82249;BME280;71851;49.092;18.918;2023-12-20T02:47:43;96914.19;;;-2.67;85.33
82249;BME280;71851;49.092;18.918;2023-12-20T02:50:45;96922.81;;;-2.68;85.95
82249;BME280;71851;49.092;18.918;2023-12-20T02:53:46;96912.34;;;-2.65;86.02
82249;BME280;71851;49.092;18.918;2023-12-20T02:56:47;96913.13;;;-2.64;85.02
82249;BME280;71851;49.092;18.918;2023-12-20T02:59:48;96906.38;;;-2.65;85.45
82249;BME280;71851;49.092;18.918;2023-12-20T03:02:48;96917.13;;;-2.60;85.93
82249;BME280;71851;49.092;18.918;2023-12-20T03:05:49;96921.66;;;-2.64;85.90
82249;BME280;71851;49.092;18.918;2023-12-20T03:08:49;96911.50;;;-2.65;85.47
82249;BME280;71851;49.092;18.918;2023-12-20T03:11:49;96900.41;;;-2.66;85.53
82249;BME280;71851;49.092;18.918;2023-12-20T03:14:50;96905.56;;;-2.66;85.29
82249;BME280;71851;49.092;18.918;2023-12-20T03:17:50;96891.28;;;-2.70;85.22
82249;BME280;71851;49.092;18.918;2023-12-20T03:20:51;96907.41;;;-2.68;85.51
82249;BME280;71851;49.092;18.918;2023-12-20T03:23:52;96908.81;;;-2.64;85.83
82249;BME280;71851;49.092;18.918;2023-12-20T03:26:52;96910.47;;;-2.63;85.31
82249;BME280;71851;49.092;18.918;2023-12-20T03:29:52;96899.38;;;-2.63;85.50
82249;BME280;71851;49.092;18.918;2023-12-20T03:32:53;96907.81;;;-2.61;85.50
82249;BME280;71851;49.092;18.918;2023-12-20T03:35:53;96906.25;;;-2.64;85.04
82249;BME280;71851;49.092;18.918;2023-12-20T03:38:54;96898.69;;;-2.65;85.75
82249;BME280;71851;49.092;18.918;2023-12-20T03:41:55;96894.44;;;-2.66;85.10
82249;BME280;71851;49.092;18.918;2023-12-20T03:44:55;96893.84;;;-2.70;84.78
82249;BME280;71851;49.092;18.918;2023-12-20T03:47:56;96900.97;;;-2.73;83.93
82249;BME280;71851;49.092;18.918;2023-12-20T03:50:57;96906.22;;;-2.75;84.57
82249;BME280;71851;49.092;18.918;2023-12-20T03:53:57;96903.75;;;-2.76;83.84
82249;BME280;71851;49.092;18.918;2023-12-20T03:56:59;96899.44;;;-2.76;84.41
82249;BME280;71851;49.092;18.918;2023-12-20T03:59:59;96889.03;;;-2.74;85.04
82249;BME280;71851;49.092;18.918;2023-12-20T04:02:59;96890.91;;;-2.76;84.19
82249;BME280;71851;49.092;18.918;2023-12-20T04:06:00;96895.94;;;-2.75;84.72
82249;BME280;71851;49.092;18.918;2023-12-20T04:09:00;96878.06;;;-2.76;83.73
82249;BME280;71851;49.092;18.918;2023-12-20T04:12:01;96889.56;;;-2.69;83.60
82249;BME280;71851;49.092;18.918;2023-12-20T04:15:01;96872.44;;;-2.58;83.29
82249;BME280;71851;49.092;18.918;2023-12-20T04:18:03;96879.03;;;-2.42;82.38
82249;BME280;71851;49.092;18.918;2023-12-20T04:21:04;96859.94;;;-2.16;81.94
82249;BME280;71851;49.092;18.918;2023-12-20T04:24:05;96869.59;;;-1.85;81.47
82249;BME280;71851;49.092;18.918;2023-12-20T04:27:05;96871.84;;;-1.58;79.23
82249;BME280;71851;49.092;18.918;2023-12-20T04:30:06;96874.91;;;-1.42;78.48
82249;BME280;71851;49.092;18.918;2023-12-20T04:33:07;96862.34;;;-1.36;79.04
82249;BME280;71851;49.092;18.918;2023-12-20T04:36:08;96846.44;;;-1.30;78.33
82249;BME280;71851;49.092;18.918;2023-12-20T04:39:10;96856.28;;;-1.24;78.10
82249;BME280;71851;49.092;18.918;2023-12-20T04:42:10;96844.66;;;-1.07;78.12
82249;BME280;71851;49.092;18.918;2023-12-20T04:45:11;96850.25;;;-1.02;77.28
82249;BME280;71851;49.092;18.918;2023-12-20T04:48:13;96837.44;;;-0.81;76.77
82249;BME280;71851;49.092;18.918;2023-12-20T04:51:13;96832.66;;;-0.86;76.32
82249;BME280;71851;49.092;18.918;2023-12-20T04:54:14;96849.06;;;-0.98;77.82
82249;BME280;71851;49.092;18.918;2023-12-20T04:57:14;96857.50;;;-0.96;77.98
82249;BME280;71851;49.092;18.918;2023-12-20T05:00:16;96855.53;;;-1.04;78.36
82249;BME280;71851;49.092;18.918;2023-12-20T05:03:16;96855.09;;;-1.09;79.22
82249;BME280;71851;49.092;18.918;2023-12-20T05:06:16;96832.03;;;-1.10;79.25
82249;BME280;71851;49.092;18.918;2023-12-20T05:09:17;96846.06;;;-1.14;79.34
82249;BME280;71851;49.092;18.918;2023-12-20T05:12:17;96838.47;;;-1.05;79.26
82249;BME280;71851;49.092;18.918;2023-12-20T05:15:18;96818.16;;;-0.87;79.40
82249;BME280;71851;49.092;18.918;2023-12-20T05:18:19;96815.31;;;-0.73;78.54
82249;BME280;71851;49.092;18.918;2023-12-20T05:21:20;96824.06;;;-0.64;78.40
82249;BME280;71851;49.092;18.918;2023-12-20T05:24:20;96834.88;;;-0.50;78.58
82249;BME280;71851;49.092;18.918;2023-12-20T05:27:21;96842.50;;;-0.48;77.97
82249;BME280;71851;49.092;18.918;2023-12-20T05:30:21;96829.31;;;-0.34;77.84
82249;BME280;71851;49.092;18.918;2023-12-20T05:33:22;96828.72;;;-0.17;77.60
82249;BME280;71851;49.092;18.918;2023-12-20T05:36:22;96832.06;;;-0.06;77.12
82249;BME280;71851;49.092;18.918;2023-12-20T05:39:22;96830.81;;;-0.11;76.94
82249;BME280;71851;49.092;18.918;2023-12-20T05:42:23;96832.06;;;-0.06;76.74
82249;BME280;71851;49.092;18.918;2023-12-20T05:45:23;96822.31;;;-0.23;77.29
82249;BME280;71851;49.092;18.918;2023-12-20T05:48:24;96854.34;;;-0.05;77.12
82249;BME280;71851;49.092;18.918;2023-12-20T05:51:24;96847.16;;;-0.01;77.23
82249;BME280;71851;49.092;18.918;2023-12-20T05:54:24;96838.97;;;0.15;76.86
82249;BME280;71851;49.092;18.918;2023-12-20T05:57:25;96874.53;;;0.11;77.16
82249;BME280;71851;49.092;18.918;2023-12-20T06:00:25;96851.28;;;0.32;77.05
82249;BME280;71851;49.092;18.918;2023-12-20T06:03:26;96856.69;;;0.08;78.28
82249;BME280;71851;49.092;18.918;2023-12-20T06:06:26;96845.25;;;0.22;77.27
82249;BME280;71851;49.092;18.918;2023-12-20T06:09:27;96851.88;;;0.45;77.26
82249;BME280;71851;49.092;18.918;2023-12-20T06:12:27;96866.19;;;0.58;77.27
82249;BME280;71851;49.092;18.918;2023-12-20T06:15:28;96848.75;;;0.71;76.50
82249;BME280;71851;49.092;18.918;2023-12-20T06:18:30;96839.22;;;0.72;76.93
82249;BME280;71851;49.092;18.918;2023-12-20T06:21:30;96821.53;;;0.67;76.55
82249;BME280;71851;49.092;18.918;2023-12-20T06:24:30;96815.66;;;0.56;77.52
82249;BME280;71851;49.092;18.918;2023-12-20T06:27:33;96837.69;;;0.60;77.62
82249;BME280;71851;49.092;18.918;2023-12-20T06:30:34;96825.56;;;0.60;77.56
82249;BME280;71851;49.092;18.918;2023-12-20T06:33:34;96826.72;;;0.77;77.22
82249;BME280;71851;49.092;18.918;2023-12-20T06:36:35;96815.72;;;0.84;76.70
82249;BME280;71851;49.092;18.918;2023-12-20T06:39:35;96813.19;;;0.94;76.59
82249;BME280;71851;49.092;18.918;2023-12-20T06:42:36;96828.56;;;0.96;76.79
82249;BME280;71851;49.092;18.918;2023-12-20T06:45:36;96832.13;;;1.04;76.46
82249;BME280;71851;49.092;18.918;2023-12-20T06:48:37;96809.41;;;1.17;76.41
82249;BME280;71851;49.092;18.918;2023-12-20T06:51:37;96817.59;;;1.22;75.91
82249;BME280;71851;49.092;18.918;2023-12-20T06:54:37;96809.41;;;1.17;76.35
82249;BME280;71851;49.092;18.918;2023-12-20T06:57:38;96822.31;;;1.27;76.33
82249;BME280;71851;49.092;18.918;2023-12-20T07:00:38;96809.16;;;1.20;76.73
82249;BME280;71851;49.092;18.918;2023-12-20T07:03:39;96804.78;;;1.30;76.62
82249;BME280;71851;49.092;18.918;2023-12-20T07:06:40;96802.22;;;1.40;76.08
82249;BME280;71851;49.092;18.918;2023-12-20T07:09:40;96796.91;;;1.51;75.81
82249;BME280;71851;49.092;18.918;2023-12-20T07:12:43;96783.56;;;1.65;75.92
82249;BME280;71851;49.092;18.918;2023-12-20T07:15:44;96813.50;;;1.67;76.43
82249;BME280;71851;49.092;18.918;2023-12-20T07:18:44;96810.34;;;1.73;75.85
82249;BME280;71851;49.092;18.918;2023-12-20T07:21:45;96797.03;;;1.78;76.11
82249;BME280;71851;49.092;18.918;2023-12-20T07:24:45;96801.34;;;1.87;76.18
82249;BME280;71851;49.092;18.918;2023-12-20T07:27:46;96805.16;;;1.93;76.23
82249;BME280;71851;49.092;18.918;2023-12-20T07:30:46;96804.31;;;2.02;75.77
82249;BME280;71851;49.092;18.918;2023-12-20T07:33:47;96802.28;;;1.96;76.03
82249;BME280;71851;49.092;18.918;2023-12-20T07:36:47;96798.91;;;1.86;76.54
82249;BME280;71851;49.092;18.918;2023-12-20T07:39:48;96805.03;;;1.85;76.48
82249;BME280;71851;49.092;18.918;2023-12-20T07:42:48;96807.19;;;1.89;76.40
82249;BME280;71851;49.092;18.918;2023-12-20T07:45:49;96815.50;;;2.02;75.85
82249;BME280;71851;49.092;18.918;2023-12-20T07:48:49;96805.00;;;2.04;75.00
82249;BME280;71851;49.092;18.918;2023-12-20T07:51:49;96802.16;;;1.97;75.52
82249;BME280;71851;49.092;18.918;2023-12-20T07:54:50;96797.16;;;1.86;76.11
82249;BME280;71851;49.092;18.918;2023-12-20T07:57:50;96796.16;;;1.97;75.72
82249;BME280;71851;49.092;18.918;2023-12-20T08:00:51;96798.84;;;2.05;75.65
82249;BME280;71851;49.092;18.918;2023-12-20T08:03:51;96796.38;;;2.13;75.97
82249;BME280;71851;49.092;18.918;2023-12-20T08:06:52;96808.91;;;2.17;76.30
82249;BME280;71851;49.092;18.918;2023-12-20T08:09:53;96791.63;;;2.18;75.61
82249;BME280;71851;49.092;18.918;2023-12-20T08:12:55;96800.16;;;2.28;75.64
82249;BME280;71851;49.092;18.918;2023-12-20T08:15:55;96792.22;;;2.39;75.36
82249;BME280;71851;49.092;18.918;2023-12-20T08:18:56;96792.88;;;2.41;75.31
82249;BME280;71851;49.092;18.918;2023-12-20T08:21:56;96811.81;;;2.41;75.62
82249;BME280;71851;49.092;18.918;2023-12-20T08:24:57;96805.50;;;2.53;75.10
82249;BME280;71851;49.092;18.918;2023-12-20T08:27:57;96800.06;;;2.56;75.13
82249;BME280;71851;49.092;18.918;2023-12-20T08:30:57;96803.69;;;2.64;74.92
82249;BME280;71851;49.092;18.918;2023-12-20T08:33:58;96802.97;;;2.71;74.48
82249;BME280;71851;49.092;18.918;2023-12-20T08:36:59;96795.91;;;2.64;75.50
82249;BME280;71851;49.092;18.918;2023-12-20T08:40:00;96806.38;;;2.72;75.22
82249;BME280;71851;49.092;18.918;2023-12-20T08:43:01;96797.06;;;2.79;75.45
82249;BME280;71851;49.092;18.918;2023-12-20T08:46:01;96794.53;;;2.69;76.02
82249;BME280;71851;49.092;18.918;2023-12-20T08:49:02;96792.69;;;2.79;75.62
82249;BME280;71851;49.092;18.918;2023-12-20T08:52:03;96801.09;;;2.91;75.87
82249;BME280;71851;49.092;18.918;2023-12-20T08:55:04;96789.19;;;2.98;76.12
82249;BME280;71851;49.092;18.918;2023-12-20T08:58:05;96798.66;;;3.07;75.11
82249;BME280;71851;49.092;18.918;2023-12-20T09:01:07;96802.00;;;3.17;75.47
82249;BME280;71851;49.092;18.918;2023-12-20T09:04:08;96800.75;;;3.21;75.42
82249;BME280;71851;49.092;18.918;2023-12-20T09:07:27;96790.34;;;3.30;75.20
82249;BME280;71851;49.092;18.918;2023-12-20T09:10:29;96789.59;;;3.38;74.02
82249;BME280;71851;49.092;18.918;2023-12-20T09:13:30;96793.53;;;3.42;74.54
82249;BME280;71851;49.092;18.918;2023-12-20T09:16:32;96789.88;;;3.35;75.29
82249;BME280;71851;49.092;18.918;2023-12-20T09:19:32;96795.59;;;3.38;75.19
82249;BME280;71851;49.092;18.918;2023-12-20T09:22:32;96793.13;;;3.37;74.95
82249;BME280;71851;49.092;18.918;2023-12-20T09:25:33;96789.88;;;3.35;75.83
82249;BME280;71851;49.092;18.918;2023-12-20T09:28:34;96780.16;;;3.37;75.01
82249;BME280;71851;49.092;18.918;2023-12-20T09:31:37;96783.81;;;3.44;75.93
82249;BME280;71851;49.092;18.918;2023-12-20T09:34:37;96784.38;;;3.56;75.28
82249;BME280;71851;49.092;18.918;2023-12-20T09:37:37;96773.56;;;3.60;74.38
82249;BME280;71851;49.092;18.918;2023-12-20T09:40:41;96767.63;;;3.68;74.29
82249;BME280;71851;49.092;18.918;2023-12-20T09:43:41;96761.06;;;3.81;74.25
82249;BME280;71851;49.092;18.918;2023-12-20T09:46:44;96764.09;;;3.94;73.62
82249;BME280;71851;49.092;18.918;2023-12-20T09:49:44;96769.91;;;3.88;74.37
82249;BME280;71851;49.092;18.918;2023-12-20T09:52:49;96761.13;;;3.89;75.36
82249;BME280;71851;49.092;18.918;2023-12-20T09:55:50;96760.97;;;3.91;74.70
82249;BME280;71851;49.092;18.918;2023-12-20T09:58:51;96766.81;;;3.93;74.33
82249;BME280;71851;49.092;18.918;2023-12-20T10:01:55;96755.59;;;3.84;74.81
82249;BME280;71851;49.092;18.918;2023-12-20T10:04:57;96745.56;;;3.89;75.49
82249;BME280;71851;49.092;18.918;2023-12-20T10:07:59;96742.25;;;3.79;75.08
82249;BME280;71851;49.092;18.918;2023-12-20T10:11:00;96738.03;;;3.78;74.44
82249;BME280;71851;49.092;18.918;2023-12-20T10:14:03;96735.66;;;3.85;75.08
82249;BME280;71851;49.092;18.918;2023-12-20T10:17:04;96729.38;;;3.95;74.50
82249;BME280;71851;49.092;18.918;2023-12-20T10:20:05;96720.09;;;3.93;75.00
82249;BME280;71851;49.092;18.918;2023-12-20T10:23:10;96724.19;;;3.95;74.40
82249;BME280;71851;49.092;18.918;2023-12-20T10:26:22;96742.13;;;3.89;74.92
82249;BME280;71851;49.092;18.918;2023-12-20T10:29:23;96732.53;;;3.81;75.89
82249;BME280;71851;49.092;18.918;2023-12-20T10:32:25;96725.81;;;3.71;76.28
82249;BME280;71851;49.092;18.918;2023-12-20T10:35:26;96727.38;;;3.64;77.17
82249;BME280;71851;49.092;18.918;2023-12-20T10:38:26;96720.88;;;3.60;77.48
82249;BME280;71851;49.092;18.918;2023-12-20T10:41:29;96728.97;;;3.57;78.21
82249;BME280;71851;49.092;18.918;2023-12-20T10:44:31;96728.69;;;3.42;78.39
82249;BME280;71851;49.092;18.918;2023-12-20T10:47:32;96725.66;;;3.47;78.07
82249;BME280;71851;49.092;18.918;2023-12-20T10:50:36;96722.41;;;3.44;78.01
82249;BME280;71851;49.092;18.918;2023-12-20T10:53:39;96720.03;;;3.33;78.62
82249;BME280;71851;49.092;18.918;2023-12-20T10:56:42;96721.94;;;3.31;79.30
82249;BME280;71851;49.092;18.918;2023-12-20T10:59:44;96719.06;;;3.34;79.40
82249;BME280;71851;49.092;18.918;2023-12-20T11:02:49;96728.78;;;3.32;79.63
82249;BME280;71851;49.092;18.918;2023-12-20T11:05:57;96718.41;;;3.32;79.28
82249;BME280;71851;49.092;18.918;2023-12-20T11:09:25;96717.94;;;3.37;79.71
82249;BME280;71851;49.092;18.918;2023-12-20T11:12:52;96710.53;;;3.42;79.83
82249;BME280;71851;49.092;18.918;2023-12-20T11:15:54;96715.75;;;3.68;79.32
82249;BME280;71851;49.092;18.918;2023-12-20T11:18:54;96727.28;;;3.73;79.42
82249;BME280;71851;49.092;18.918;2023-12-20T11:21:56;96713.75;;;3.87;79.87
82249;BME280;71851;49.092;18.918;2023-12-20T11:25:06;96714.25;;;3.65;79.13
82249;BME280;71851;49.092;18.918;2023-12-20T11:28:10;96700.16;;;3.68;79.00
82249;BME280;71851;49.092;18.918;2023-12-20T11:31:16;96708.50;;;3.79;78.87
82249;BME280;71851;49.092;18.918;2023-12-20T11:34:20;96700.38;;;4.00;79.20
82249;BME280;71851;49.092;18.918;2023-12-20T11:37:21;96707.06;;;4.10;79.16
82249;BME280;71851;49.092;18.918;2023-12-20T11:40:23;96713.47;;;4.24;79.51
82249;BME280;71851;49.092;18.918;2023-12-20T11:43:36;96729.59;;;4.36;79.19
82249;BME280;71851;49.092;18.918;2023-12-20T11:46:37;96729.78;;;4.42;79.36
82249;BME280;71851;49.092;18.918;2023-12-20T11:49:37;96726.84;;;4.45;78.15
82249;BME280;71851;49.092;18.918;2023-12-20T11:52:38;96718.56;;;4.42;78.18
82249;BME280;71851;49.092;18.918;2023-12-20T11:55:38;96719.09;;;4.53;77.49
82249;BME280;71851;49.092;18.918;2023-12-20T11:58:39;96708.72;;;4.61;77.69
82249;BME280;71851;49.092;18.918;2023-12-20T12:01:39;96702.91;;;4.67;77.05
82249;BME280;71851;49.092;18.918;2023-12-20T12:04:43;96701.59;;;4.71;76.08
82249;BME280;71851;49.092;18.918;2023-12-20T12:07:43;96694.34;;;4.83;75.45
82249;BME280;71851;49.092;18.918;2023-12-20T12:10:44;96686.88;;;4.96;75.75
82249;BME280;71851;49.092;18.918;2023-12-20T12:13:45;96681.38;;;4.99;75.38
82249;BME280;71851;49.092;18.918;2023-12-20T12:16:46;96668.19;;;4.92;74.46
82249;BME280;71851;49.092;18.918;2023-12-20T12:19:46;96684.59;;;4.85;74.49
82249;BME280;71851;49.092;18.918;2023-12-20T12:23:00;96689.91;;;4.75;75.20
82249;BME280;71851;49.092;18.918;2023-12-20T12:26:03;96670.16;;;4.90;75.36
82249;BME280;71851;49.092;18.918;2023-12-20T12:29:07;96677.13;;;5.06;75.45
82249;BME280;71851;49.092;18.918;2023-12-20T12:32:09;96661.06;;;5.10;75.38
82249;BME280;71851;49.092;18.918;2023-12-20T12:35:10;96660.25;;;5.18;75.06
82249;BME280;71851;49.092;18.918;2023-12-20T12:38:11;96659.25;;;5.19;74.84
82249;BME280;71851;49.092;18.918;2023-12-20T12:41:13;96661.72;;;5.29;74.01
82249;BME280;71851;49.092;18.918;2023-12-20T12:44:13;96657.81;;;5.33;74.49
82249;BME280;71851;49.092;18.918;2023-12-20T12:47:13;96643.97;;;5.40;74.61
82249;BME280;71851;49.092;18.918;2023-12-20T12:50:14;96647.22;;;5.42;73.13
82249;BME280;71851;49.092;18.918;2023-12-20T12:53:15;96643.00;;;5.33;73.10
82249;BME280;71851;49.092;18.918;2023-12-20T12:56:15;96643.97;;;5.48;72.06
82249;BME280;71851;49.092;18.918;2023-12-20T12:59:16;96643.78;;;5.58;71.95
82249;BME280;71851;49.092;18.918;2023-12-20T13:02:16;96653.53;;;5.64;71.20
82249;BME280;71851;49.092;18.918;2023-12-20T13:05:17;96658.41;;;5.75;70.41
82249;BME280;71851;49.092;18.918;2023-12-20T13:08:18;96644.06;;;5.95;69.27
82249;BME280;71851;49.092;18.918;2023-12-20T13:11:18;96659.66;;;6.03;67.98
82249;BME280;71851;49.092;18.918;2023-12-20T13:14:19;96659.66;;;6.11;67.57
82249;BME280;71851;49.092;18.918;2023-12-20T13:17:20;96662.41;;;6.10;67.88
82249;BME280;71851;49.092;18.918;2023-12-20T13:20:26;96672.34;;;6.06;67.13
82249;BME280;71851;49.092;18.918;2023-12-20T13:23:27;96677.06;;;6.11;67.87
82249;BME280;71851;49.092;18.918;2023-12-20T13:26:27;96673.66;;;6.02;68.39
82249;BME280;71851;49.092;18.918;2023-12-20T13:29:27;96669.28;;;6.03;67.19
82249;BME280;71851;49.092;18.918;2023-12-20T13:32:28;96668.63;;;6.00;67.00
82249;BME280;71851;49.092;18.918;2023-12-20T13:35:28;96676.59;;;5.99;67.92
82249;BME280;71851;49.092;18.918;2023-12-20T13:38:29;96665.69;;;5.95;68.71
82249;BME280;71851;49.092;18.918;2023-12-20T13:41:29;96668.81;;;5.91;69.44
82249;BME280;71851;49.092;18.918;2023-12-20T13:44:30;96664.94;;;5.87;69.28
82249;BME280;71851;49.092;18.918;2023-12-20T13:47:31;96653.22;;;5.75;69.45
82249;BME280;71851;49.092;18.918;2023-12-20T13:50:32;96653.84;;;5.77;69.53
82249;BME280;71851;49.092;18.918;2023-12-20T13:53:32;96641.97;;;5.74;69.59
82249;BME280;71851;49.092;18.918;2023-12-20T13:56:33;96649.13;;;5.72;69.49
82249;BME280;71851;49.092;18.918;2023-12-20T13:59:34;96652.22;;;5.68;69.95
82249;BME280;71851;49.092;18.918;2023-12-20T14:02:36;96656.97;;;5.64;69.69
82249;BME280;71851;49.092;18.918;2023-12-20T14:05:36;96666.25;;;5.59;70.33
82249;BME280;71851;49.092;18.918;2023-12-20T14:08:37;96667.69;;;5.53;70.15
82249;BME280;71851;49.092;18.918;2023-12-20T14:11:38;96664.63;;;5.50;70.57
82249;BME280;71851;49.092;18.918;2023-12-20T14:14:41;96674.38;;;5.56;70.77
82249;BME280;71851;49.092;18.918;2023-12-20T14:17:41;96674.72;;;5.53;70.37
82249;BME280;71851;49.092;18.918;2023-12-20T14:20:42;96683.97;;;5.47;70.48
82249;BME280;71851;49.092;18.918;2023-12-20T14:23:42;96696.97;;;5.39;70.44
82249;BME280;71851;49.092;18.918;2023-12-20T14:26:43;96709.03;;;5.40;71.23
82249;BME280;71851;49.092;18.918;2023-12-20T14:29:44;96722.34;;;5.37;71.16
82249;BME280;71851;49.092;18.918;2023-12-20T14:32:44;96720.91;;;5.27;71.83
82249;BME280;71851;49.092;18.918;2023-12-20T14:35:44;96729.66;;;5.26;71.47
82249;BME280;71851;49.092;18.918;2023-12-20T14:38:45;96721.38;;;5.22;71.98
82249;BME280;71851;49.092;18.918;2023-12-20T14:41:47;96726.75;;;5.21;71.46
82249;BME280;71851;49.092;18.918;2023-12-20T14:44:47;96704.81;;;5.15;71.44
82249;BME280;71851;49.092;18.918;2023-12-20T14:47:47;96715.84;;;5.09;70.40
82249;BME280;71851;49.092;18.918;2023-12-20T14:50:48;96708.84;;;5.09;70.81
82249;BME280;71851;49.092;18.918;2023-12-20T14:53:50;96702.00;;;5.00;70.59
82249;BME280;71851;49.092;18.918;2023-12-20T14:56:51;96714.50;;;4.89;71.45
82249;BME280;71851;49.092;18.918;2023-12-20T14:59:52;96721.66;;;4.95;71.77
82249;BME280;71851;49.092;18.918;2023-12-20T15:02:52;96712.88;;;4.96;71.72
82249;BME280;71851;49.092;18.918;2023-12-20T15:05:54;96701.19;;;5.00;71.96
82249;BME280;71851;49.092;18.918;2023-12-20T15:08:55;96696.31;;;4.97;71.50
82249;BME280;71851;49.092;18.918;2023-12-20T15:11:57;96686.06;;;4.95;71.67
82249;BME280;71851;49.092;18.918;2023-12-20T15:14:58;96677.13;;;4.90;71.89
82249;BME280;71851;49.092;18.918;2023-12-20T15:18:01;96687.69;;;4.88;72.31
82249;BME280;71851;49.092;18.918;2023-12-20T15:21:04;96687.69;;;4.88;72.31
82249;BME280;71851;49.092;18.918;2023-12-20T15:24:06;96695.81;;;4.93;72.53
82249;BME280;71851;49.092;18.918;2023-12-20T15:27:13;96710.44;;;4.86;72.03
82249;BME280;71851;49.092;18.918;2023-12-20T15:30:13;96703.28;;;4.88;72.95
82249;BME280;71851;49.092;18.918;2023-12-20T15:33:14;96704.75;;;4.91;73.08
82249;BME280;71851;49.092;18.918;2023-12-20T15:36:15;96702.94;;;4.91;72.62
82249;BME280;71851;49.092;18.918;2023-12-20T15:39:15;96696.78;;;4.92;71.78
82249;BME280;71851;49.092;18.918;2023-12-20T15:42:16;96707.03;;;5.02;72.70
82249;BME280;71851;49.092;18.918;2023-12-20T15:45:16;96702.47;;;4.96;72.71
82249;BME280;71851;49.092;18.918;2023-12-20T15:48:18;96703.97;;;4.98;72.50
82249;BME280;71851;49.092;18.918;2023-12-20T15:51:21;96721.19;;;5.07;71.97
82249;BME280;71851;49.092;18.918;2023-12-20T15:54:22;96710.94;;;5.06;74.02
82249;BME280;71851;49.092;18.918;2023-12-20T15:57:22;96714.84;;;5.02;73.20